createdAt,value
2022-11-28T00:01:19.090Z,184.50
2022-11-28T00:06:12.352Z,182.32
2022-11-28T00:08:38.875Z,183.90
2022-11-28T00:11:08.532Z,183.27
2022-11-28T00:13:36.150Z,194.95
2022-11-28T00:16:04.966Z,107.22
2022-11-28T00:18:31.613Z,283.40
2022-11-28T00:21:10.074Z,238.68
2022-11-28T00:23:36.524Z,228.55
2022-11-28T00:26:11.655Z,200.30
2022-11-28T00:28:38.288Z,189.10
2022-11-28T00:31:05.070Z,126.60
2022-11-28T00:33:33.088Z,294.83
2022-11-28T00:36:05.882Z,159.50
2022-11-28T00:38:32.279Z,146.57
2022-11-28T00:40:59.731Z,163.20
2022-11-28T00:43:26.224Z,130.48
2022-11-28T00:45:52.674Z,216.48
2022-11-28T00:48:19.493Z,128.98
2022-11-28T00:50:46.342Z,172.23
2022-11-28T00:53:12.849Z,114.35
2022-11-28T00:55:39.982Z,158.65
2022-11-28T00:58:07.028Z,202.98
2022-11-28T01:00:34.139Z,144.25
2022-11-28T01:03:00.572Z,174.50
2022-11-28T01:05:27.000Z,143.80
2022-11-28T01:07:53.655Z,140.82
2022-11-28T01:10:21.263Z,115.63
2022-11-28T01:12:47.872Z,123.10
2022-11-28T01:15:14.492Z,157.25
2022-11-28T01:17:41.921Z,165.27
2022-11-28T01:20:09.281Z,185.48
2022-11-28T01:22:35.726Z,180.18
2022-11-28T01:25:02.161Z,258.17
2022-11-28T01:27:28.602Z,170.63
2022-11-28T01:29:55.214Z,267.15
2022-11-28T01:32:21.641Z,198.45
2022-11-28T01:34:48.069Z,294.83
2022-11-28T01:37:14.559Z,353.98
2022-11-28T01:39:40.990Z,221.23
2022-11-28T01:42:07.401Z,233.50
2022-11-28T01:44:33.851Z,127.63
2022-11-28T01:47:00.289Z,211.73
2022-11-28T01:49:34.612Z,136.00
2022-11-28T01:52:20.083Z,131.40
2022-11-28T01:54:52.249Z,240.77
2022-11-28T01:57:22.320Z,178.02
2022-11-28T01:59:58.242Z,223.18
2022-11-28T02:02:34.722Z,231.25
2022-11-28T02:05:01.294Z,214.57
2022-11-28T02:07:27.811Z,161.45
2022-11-28T02:09:54.837Z,311.00
2022-11-28T02:12:46.277Z,232.38
2022-11-28T02:15:25.408Z,196.50
2022-11-28T02:18:25.780Z,200.02
2022-11-28T02:21:04.473Z,257.98
2022-11-28T02:23:56.527Z,239.82
2022-11-28T02:26:58.472Z,301.95
2022-11-28T02:29:38.703Z,172.25
2022-11-28T02:32:25.030Z,264.73
2022-11-28T02:35:22.224Z,364.15
2022-11-28T02:38:11.561Z,327.63
2022-11-28T02:40:53.266Z,281.48
2022-11-28T02:43:33.255Z,160.60
2022-11-28T02:46:17.175Z,138.27
2022-11-28T02:49:04.408Z,205.27
2022-11-28T02:51:52.770Z,220.80
2022-11-28T02:54:21.057Z,240.02
2022-11-28T02:56:52.757Z,75.47
2022-11-28T02:59:31.316Z,219.40
2022-11-28T03:01:58.982Z,209.07
2022-11-28T03:05:02.789Z,210.30
2022-11-28T03:08:14.218Z,230.90
2022-11-28T03:10:59.228Z,247.57
2022-11-28T03:13:41.765Z,164.15
2022-11-28T03:16:22.622Z,246.60
2022-11-28T03:19:16.413Z,195.75
2022-11-28T03:21:50.933Z,164.73
2022-11-28T03:24:27.882Z,230.07
2022-11-28T03:27:19.208Z,217.52
2022-11-28T03:30:00.427Z,159.98
2022-11-28T03:32:33.771Z,177.80
2022-11-28T03:35:08.443Z,193.30
2022-11-28T03:37:40.688Z,141.00
2022-11-28T03:40:12.432Z,328.45
2022-11-28T03:42:43.560Z,251.52
2022-11-28T03:45:25.553Z,238.00
2022-11-28T03:48:06.627Z,138.23
2022-11-28T03:50:41.807Z,155.60
2022-11-28T03:53:37.594Z,215.48
2022-11-28T03:56:22.862Z,218.02
2022-11-28T03:58:59.251Z,121.03
2022-11-28T04:01:35.236Z,111.93
2022-11-28T04:04:31.658Z,98.35
2022-11-28T04:07:16.797Z,204.80
2022-11-28T04:10:00.487Z,138.25
2022-11-28T04:12:52.879Z,150.65
2022-11-28T04:15:40.865Z,201.23
2022-11-28T04:18:13.439Z,174.23
2022-11-28T04:20:46.198Z,147.43
2022-11-28T04:23:16.993Z,99.53
2022-11-28T04:25:50.904Z,236.77
2022-11-28T04:28:22.344Z,176.90
2022-11-28T04:33:20.877Z,165.35
2022-11-28T04:35:53.224Z,136.32
2022-11-28T04:38:22.691Z,192.95
2022-11-28T04:41:18.396Z,158.82
2022-11-28T04:43:52.080Z,207.23
2022-11-28T04:46:25.173Z,186.57
2022-11-28T04:48:51.736Z,168.23
2022-11-28T04:51:27.384Z,165.32
2022-11-28T04:54:19.915Z,178.35
2022-11-28T04:57:01.462Z,218.63
2022-11-28T05:01:58.604Z,270.48
2022-11-28T05:04:25.303Z,285.88
2022-11-28T05:07:02.297Z,213.45
2022-11-28T05:09:28.735Z,218.35
2022-11-28T05:11:55.200Z,337.98
2022-11-28T05:14:22.188Z,135.85
2022-11-28T05:16:48.831Z,291.75
2022-11-28T05:19:15.869Z,221.57
2022-11-28T05:21:42.454Z,216.10
2022-11-28T05:24:09.391Z,128.00
2022-11-28T05:26:35.894Z,192.20
2022-11-28T05:29:02.545Z,119.15
2022-11-28T05:31:29.294Z,111.88
2022-11-28T05:33:56.013Z,78.57
2022-11-28T05:36:22.975Z,81.13
2022-11-28T05:38:50.325Z,85.40
2022-11-28T05:41:26.253Z,43.85
2022-11-28T05:43:53.260Z,59.03
2022-11-28T05:46:20.160Z,43.13
2022-11-28T05:48:46.693Z,38.10
2022-11-28T05:51:13.201Z,53.63
2022-11-28T05:53:39.610Z,33.55
2022-11-28T05:56:11.146Z,42.75
2022-11-28T05:58:37.693Z,37.30
2022-11-28T06:01:13.953Z,40.90
2022-11-28T06:03:41.493Z,34.90
2022-11-28T06:06:20.494Z,42.80
2022-11-28T06:08:48.779Z,31.52
2022-11-28T06:11:16.074Z,34.67
2022-11-28T06:13:43.532Z,49.78
2022-11-28T06:16:11.904Z,35.75
2022-11-28T06:18:39.852Z,34.45
2022-11-28T06:21:09.538Z,32.28
2022-11-28T06:23:36.859Z,30.80
2022-11-28T06:26:08.467Z,27.15
2022-11-28T06:28:35.521Z,26.58
2022-11-28T06:31:02.375Z,31.90
2022-11-28T06:33:29.592Z,37.30
2022-11-28T06:36:00.963Z,32.80
2022-11-28T06:40:59.900Z,42.20
2022-11-28T06:43:26.931Z,41.00
2022-11-28T06:45:53.652Z,38.88
2022-11-28T06:48:20.594Z,37.42
2022-11-28T06:50:47.646Z,37.10
2022-11-28T06:53:14.576Z,33.63
2022-11-28T06:55:41.362Z,35.95
2022-11-28T06:58:07.874Z,37.10
2022-11-28T07:00:35.102Z,44.45
2022-11-28T07:03:01.516Z,43.58
2022-11-28T07:05:28.619Z,58.55
2022-11-28T07:07:55.054Z,66.53
2022-11-28T07:10:22.183Z,29.40
2022-11-28T07:12:54.079Z,59.50
2022-11-28T07:15:20.617Z,32.33
2022-11-28T07:17:47.049Z,36.10
2022-11-28T07:20:13.920Z,39.63
2022-11-28T07:22:40.358Z,42.35
2022-11-28T07:25:07.415Z,52.30
2022-11-28T07:27:34.068Z,97.95
2022-11-28T07:30:00.486Z,62.45
2022-11-28T07:32:26.949Z,50.95
2022-11-28T07:34:53.838Z,59.85
2022-11-28T07:37:20.368Z,89.43
2022-11-28T07:39:47.484Z,50.92
2022-11-28T07:42:13.936Z,42.85
2022-11-28T07:44:40.774Z,48.67
2022-11-28T07:47:07.223Z,46.65
2022-11-28T07:49:33.632Z,44.10
2022-11-28T07:52:01.086Z,42.80
2022-11-28T07:54:27.496Z,34.25
2022-11-28T07:59:40.735Z,33.30
2022-11-28T08:02:09.045Z,32.15
2022-11-28T08:04:36.679Z,32.42
2022-11-28T08:07:03.216Z,48.78
2022-11-28T08:09:31.576Z,49.83
2022-11-28T08:11:58.681Z,46.83
2022-11-28T08:14:25.310Z,49.92
2022-11-28T08:16:52.388Z,41.97
2022-11-28T08:19:22.951Z,41.28
2022-11-28T08:21:51.096Z,71.35
2022-11-28T08:24:17.572Z,57.88
2022-11-28T08:26:44.047Z,84.05
2022-11-28T08:29:10.979Z,38.90
2022-11-28T08:31:38.708Z,63.38
2022-11-28T08:34:08.499Z,67.28
2022-11-28T08:36:35.031Z,172.13
2022-11-28T08:39:22.765Z,48.53
2022-11-28T08:41:49.782Z,51.83
2022-11-28T08:44:16.296Z,46.00
2022-11-28T08:46:42.750Z,75.25
2022-11-28T08:49:09.181Z,94.57
2022-11-28T08:51:36.508Z,71.78
2022-11-28T08:54:02.999Z,85.15
2022-11-28T08:56:29.438Z,110.93
2022-11-28T08:58:55.996Z,58.40
2022-11-28T09:01:26.766Z,55.80
2022-11-28T09:03:54.726Z,112.22
2022-11-28T09:06:22.291Z,96.70
2022-11-28T09:08:50.120Z,240.57
2022-11-28T09:11:18.395Z,76.30
2022-11-28T09:13:45.134Z,102.97
2022-11-28T09:16:12.616Z,76.40
2022-11-28T09:18:39.048Z,111.00
2022-11-28T09:21:11.707Z,76.70
2022-11-28T09:23:41.040Z,137.38
2022-11-28T09:26:12.648Z,55.42
2022-11-28T09:28:39.039Z,62.28
2022-11-28T09:31:07.516Z,57.42
2022-11-28T09:33:35.069Z,60.55
2022-11-28T09:36:10.452Z,55.40
2022-11-28T09:38:37.342Z,59.90
2022-11-28T09:41:16.603Z,120.65
2022-11-28T09:43:44.943Z,72.47
2022-11-28T09:46:17.903Z,62.22
2022-11-28T09:48:52.029Z,65.20
2022-11-28T09:51:31.242Z,66.53
2022-11-28T09:54:34.745Z,121.55
2022-11-28T09:57:03.638Z,66.80
2022-11-28T09:59:30.507Z,72.13
2022-11-28T10:02:21.906Z,77.82
2022-11-28T10:04:59.386Z,53.65
2022-11-28T10:07:33.077Z,68.00
2022-11-28T10:10:33.579Z,55.10
2022-11-28T10:13:18.805Z,59.90
2022-11-28T10:16:13.143Z,52.90
2022-11-28T10:18:54.679Z,53.97
2022-11-28T10:21:31.221Z,55.50
2022-11-28T10:24:05.891Z,54.78
2022-11-28T10:26:37.082Z,66.90
2022-11-28T10:29:27.581Z,50.78
2022-11-28T10:31:57.391Z,59.92
2022-11-28T10:34:31.163Z,50.67
2022-11-28T10:37:03.425Z,52.53
2022-11-28T10:39:29.867Z,51.80
2022-11-28T10:42:13.695Z,56.20
2022-11-28T10:44:56.337Z,48.70
2022-11-28T10:47:41.183Z,49.30
2022-11-28T10:50:33.664Z,57.17
2022-11-28T10:53:09.003Z,45.58
2022-11-28T10:55:58.954Z,49.58
2022-11-28T10:58:51.300Z,45.67
2022-11-28T11:01:17.876Z,44.97
2022-11-28T11:03:44.516Z,50.42
2022-11-28T11:06:11.089Z,44.47
2022-11-28T11:08:39.611Z,50.80
2022-11-28T11:11:18.740Z,52.33
2022-11-28T11:14:09.411Z,46.20
2022-11-28T11:16:55.785Z,48.27
2022-11-28T11:19:36.886Z,45.70
2022-11-28T11:22:12.497Z,45.90
2022-11-28T11:24:38.933Z,45.45
2022-11-28T11:27:25.639Z,46.90
2022-11-28T11:29:53.353Z,43.88
2022-11-28T11:32:25.110Z,47.35
2022-11-28T11:37:20.617Z,46.42
2022-11-28T11:39:51.842Z,47.17
2022-11-28T11:42:24.837Z,41.80
2022-11-28T11:44:51.777Z,41.47
2022-11-28T11:47:19.156Z,46.08
2022-11-28T11:49:49.651Z,39.58
2022-11-28T11:52:24.210Z,38.57
2022-11-28T11:54:59.403Z,37.78
2022-11-28T11:57:36.937Z,39.72
2022-11-28T12:00:10.846Z,39.03
2022-11-28T12:02:45.709Z,40.17
2022-11-28T12:05:21.208Z,39.78
2022-11-28T12:07:58.754Z,35.83
2022-11-28T12:10:29.711Z,34.38
2022-11-28T12:12:56.772Z,41.30
2022-11-28T12:15:59.193Z,38.85
2022-11-28T12:18:51.551Z,39.03
2022-11-28T12:22:12.992Z,31.08
2022-11-28T12:24:59.568Z,30.92
2022-11-28T12:27:41.240Z,30.40
2022-11-28T12:30:24.776Z,31.15
2022-11-28T12:33:05.380Z,39.63
2022-11-28T12:35:39.946Z,35.33
2022-11-28T12:38:20.808Z,34.90
2022-11-28T12:41:27.517Z,38.17
2022-11-28T12:44:09.032Z,31.42
2022-11-28T12:46:49.890Z,36.97
2022-11-28T12:49:41.199Z,35.85
2022-11-28T12:52:45.667Z,30.35
2022-11-28T12:55:36.837Z,33.33
2022-11-28T12:58:18.693Z,35.60
2022-11-28T13:01:17.066Z,30.50
2022-11-28T13:04:06.544Z,31.95
2022-11-28T13:06:56.717Z,33.75
2022-11-28T13:09:31.651Z,38.67
2022-11-28T13:12:22.532Z,34.22
2022-11-28T13:14:58.884Z,37.00
2022-11-28T13:17:40.957Z,43.92
2022-11-28T13:20:52.866Z,39.53
2022-11-28T13:26:07.802Z,40.10
2022-11-28T13:28:54.698Z,45.20
2022-11-28T13:32:01.704Z,38.17
2022-11-28T13:34:29.927Z,41.15
2022-11-28T13:40:07.649Z,40.53
2022-11-28T13:43:12.988Z,43.72
2022-11-28T13:45:44.400Z,39.17
2022-11-28T13:51:19.316Z,37.60
2022-11-28T13:53:49.480Z,37.78
2022-11-28T13:56:24.944Z,40.17
2022-11-28T13:59:00.709Z,46.10
2022-11-28T14:01:44.264Z,42.28
2022-11-28T14:04:17.318Z,47.83
2022-11-28T14:06:52.257Z,52.20
2022-11-28T14:09:36.908Z,49.80
2022-11-28T14:12:29.787Z,48.40
2022-11-28T14:15:08.420Z,49.85
2022-11-28T14:17:50.905Z,49.33
2022-11-28T14:20:36.398Z,46.10
2022-11-28T14:23:41.645Z,49.70
2022-11-28T14:26:32.008Z,50.55
2022-11-28T14:28:59.143Z,54.15
2022-11-28T14:31:31.750Z,50.85
2022-11-28T14:34:03.545Z,51.60
2022-11-28T14:36:36.127Z,50.58
2022-11-28T14:39:16.272Z,58.72
2022-11-28T14:42:02.620Z,54.53
2022-11-28T14:44:52.859Z,62.15
2022-11-28T14:47:31.986Z,66.20
2022-11-28T14:50:04.467Z,64.78
2022-11-28T14:52:39.828Z,74.13
2022-11-28T14:55:08.058Z,73.55
2022-11-28T14:57:37.686Z,75.03
2022-11-28T15:00:16.379Z,71.15
2022-11-28T15:03:12.512Z,81.45
2022-11-28T15:05:47.704Z,88.53
2022-11-28T15:08:58.932Z,84.68
2022-11-28T15:11:58.713Z,83.65
2022-11-28T15:14:28.705Z,98.07
2022-11-28T15:17:00.377Z,94.00
2022-11-28T15:19:31.919Z,102.38
2022-11-28T15:22:01.075Z,108.15
2022-11-28T15:24:27.522Z,104.82
2022-11-28T15:26:57.764Z,154.57
2022-11-28T15:29:27.238Z,175.33
2022-11-28T15:31:57.088Z,177.13
2022-11-28T15:34:27.432Z,151.32
2022-11-28T15:36:56.207Z,210.43
2022-11-28T15:39:34.959Z,100.78
2022-11-28T15:42:04.620Z,107.93
2022-11-28T15:44:32.196Z,129.95
2022-11-28T15:46:58.782Z,110.45
2022-11-28T15:49:31.747Z,94.95
2022-11-28T15:52:01.250Z,114.03
2022-11-28T15:54:41.727Z,105.80
2022-11-28T15:57:20.321Z,108.47
2022-11-28T15:59:47.245Z,93.18
2022-11-28T16:02:30.619Z,101.28
2022-11-28T16:05:20.945Z,108.80
2022-11-28T16:07:50.178Z,99.90
2022-11-28T16:10:21.888Z,106.63
2022-11-28T16:12:48.964Z,96.32
2022-11-28T16:15:20.601Z,100.65
2022-11-28T16:17:47.214Z,94.00
2022-11-28T16:20:29.764Z,128.10
2022-11-28T16:22:59.516Z,106.30
2022-11-28T16:25:27.528Z,107.75
2022-11-28T16:27:57.210Z,110.78
2022-11-28T16:30:24.053Z,110.28
2022-11-28T16:32:52.292Z,155.13
2022-11-28T16:35:38.776Z,140.63
2022-11-28T16:38:18.841Z,176.65
2022-11-28T16:40:45.331Z,143.48
2022-11-28T16:43:37.528Z,272.42
2022-11-28T16:46:06.753Z,213.77
2022-11-28T16:48:38.644Z,121.30
2022-11-28T16:51:11.575Z,115.55
2022-11-28T16:53:48.239Z,110.15
2022-11-28T16:56:29.699Z,113.82
2022-11-28T17:01:30.282Z,101.32
2022-11-28T17:03:57.707Z,100.05
2022-11-28T17:06:39.394Z,95.90
2022-11-28T17:09:09.259Z,103.85
2022-11-28T17:11:37.692Z,96.13
2022-11-28T17:14:10.160Z,89.85
2022-11-28T17:16:40.501Z,92.10
2022-11-28T17:19:07.094Z,105.63
2022-11-28T17:21:42.037Z,83.03
2022-11-28T17:24:17.139Z,80.13
2022-11-28T17:26:43.779Z,80.50
2022-11-28T17:29:12.518Z,78.68
2022-11-28T17:31:42.144Z,149.48
2022-11-28T17:34:24.025Z,250.57
2022-11-28T17:36:51.226Z,163.90
2022-11-28T17:39:19.063Z,116.25
2022-11-28T17:41:46.923Z,99.90
2022-11-28T17:44:24.891Z,136.48
2022-11-28T17:46:52.820Z,101.82
2022-11-28T17:49:20.123Z,89.20
2022-11-28T17:51:48.600Z,78.97
2022-11-28T17:54:17.746Z,80.72
2022-11-28T17:56:54.296Z,86.35
2022-11-28T17:59:23.674Z,73.30
2022-11-28T18:01:50.510Z,76.18
2022-11-28T18:04:22.996Z,76.35
2022-11-28T18:06:49.781Z,68.97
2022-11-28T18:09:16.340Z,75.13
2022-11-28T18:11:43.543Z,72.32
2022-11-28T18:14:10.171Z,73.55
2022-11-28T18:16:39.554Z,69.50
2022-11-28T18:19:06.301Z,65.75
2022-11-28T18:21:33.024Z,65.50
2022-11-28T18:23:59.580Z,68.30
2022-11-28T18:26:26.492Z,60.58
2022-11-28T18:28:53.982Z,60.08
2022-11-28T18:31:23.445Z,61.85
2022-11-28T18:33:50.146Z,61.85
2022-11-28T18:36:22.604Z,55.03
2022-11-28T18:38:49.146Z,54.65
2022-11-28T18:41:17.648Z,52.03
2022-11-28T18:43:45.157Z,50.30
2022-11-28T18:46:19.050Z,57.88
2022-11-28T18:48:47.185Z,72.25
2022-11-28T18:51:18.135Z,53.35
2022-11-28T18:53:45.451Z,53.42
2022-11-28T18:56:13.179Z,55.45
2022-11-28T18:58:42.362Z,52.60
2022-11-28T19:01:15.039Z,60.97
2022-11-28T19:03:42.567Z,60.00
2022-11-28T19:06:12.052Z,59.20
2022-11-28T19:08:39.422Z,63.05
2022-11-28T19:11:09.609Z,59.30
2022-11-28T19:13:37.054Z,61.85
2022-11-28T19:16:07.832Z,62.42
2022-11-28T19:18:36.088Z,66.15
2022-11-28T19:21:06.823Z,63.45
2022-11-28T19:23:33.985Z,67.72
2022-11-28T19:26:04.908Z,64.35
2022-11-28T19:28:31.435Z,69.18
2022-11-28T19:31:08.116Z,59.15
2022-11-28T19:33:35.037Z,61.47
2022-11-28T19:36:06.916Z,92.45
2022-11-28T19:38:34.811Z,89.22
2022-11-28T19:41:12.372Z,86.32
2022-11-28T19:43:39.002Z,74.78
2022-11-28T19:46:06.212Z,69.93
2022-11-28T19:48:35.201Z,67.93
2022-11-28T19:51:03.811Z,53.47
2022-11-28T19:53:32.216Z,54.30
2022-11-28T19:56:03.502Z,52.42
2022-11-28T19:58:31.535Z,54.25
2022-11-28T20:01:10.439Z,48.13
2022-11-28T20:03:38.616Z,53.25
2022-11-28T20:06:20.352Z,55.05
2022-11-28T20:08:48.886Z,52.40
2022-11-28T20:11:23.623Z,53.70
2022-11-28T20:13:55.293Z,54.70
2022-11-28T20:16:21.876Z,51.33
2022-11-28T20:18:48.400Z,53.22
2022-11-28T20:21:17.792Z,53.38
2022-11-28T20:23:55.821Z,52.75
2022-11-28T20:26:26.186Z,51.40
2022-11-28T20:28:55.580Z,54.40
2022-11-28T20:31:36.412Z,51.45
2022-11-28T20:34:05.994Z,54.40
2022-11-28T20:36:34.224Z,50.80
2022-11-28T20:39:01.106Z,57.42
2022-11-28T20:41:28.724Z,69.22
2022-11-28T20:43:56.098Z,60.28
2022-11-28T20:46:27.056Z,78.07
2022-11-28T20:48:53.975Z,60.92
2022-11-28T20:51:24.759Z,52.97
2022-11-28T20:53:52.189Z,59.13
2022-11-28T20:56:21.544Z,65.85
2022-11-28T20:58:48.751Z,61.42
2022-11-28T21:01:17.936Z,57.08
2022-11-28T21:03:44.475Z,49.60
2022-11-28T21:06:11.133Z,62.30
2022-11-28T21:08:37.577Z,54.67
2022-11-28T21:11:25.600Z,55.63
2022-11-28T21:13:57.722Z,54.17
2022-11-28T21:16:29.144Z,54.53
2022-11-28T21:21:26.631Z,50.60
2022-11-28T21:23:57.873Z,51.05
2022-11-28T21:26:30.251Z,51.53
2022-11-28T21:29:00.371Z,46.20
2022-11-28T21:31:30.068Z,44.65
2022-11-28T21:33:58.162Z,46.00
2022-11-28T21:36:25.433Z,43.58
2022-11-28T21:38:54.134Z,42.80
2022-11-28T21:41:21.854Z,44.55
2022-11-28T21:43:49.409Z,45.15
2022-11-28T21:46:15.955Z,46.78
2022-11-28T21:48:43.085Z,46.25
2022-11-28T21:51:18.892Z,39.58
2022-11-28T21:53:45.616Z,51.03
2022-11-28T21:56:12.562Z,38.80
2022-11-28T21:58:39.107Z,38.53
2022-11-28T22:01:11.607Z,39.70
2022-11-28T22:03:38.928Z,38.33
2022-11-28T22:06:08.732Z,41.65
2022-11-28T22:08:35.753Z,37.10
2022-11-28T22:11:08.490Z,42.05
2022-11-28T22:13:35.800Z,37.92
2022-11-28T22:16:12.231Z,39.53
2022-11-28T22:18:38.692Z,40.60
2022-11-28T22:21:22.575Z,39.83
2022-11-28T22:23:53.718Z,39.65
2022-11-28T22:26:20.605Z,41.72
2022-11-28T22:28:53.199Z,37.28
2022-11-28T22:31:20.438Z,40.75
2022-11-28T22:33:49.491Z,39.08
2022-11-28T22:36:18.811Z,38.97
2022-11-28T22:38:47.304Z,38.25
2022-11-28T22:41:24.792Z,41.45
2022-11-28T22:43:56.437Z,39.95
2022-11-28T22:46:23.225Z,41.40
2022-11-28T22:48:51.705Z,37.95
2022-11-28T22:51:21.152Z,41.10
2022-11-28T22:53:47.630Z,39.60
2022-11-28T22:56:15.489Z,43.42
2022-11-28T22:58:44.323Z,42.85
2022-11-28T23:01:14.096Z,53.03
2022-11-28T23:03:40.843Z,41.85
2022-11-28T23:06:10.424Z,43.85
2022-11-28T23:08:37.231Z,42.42
2022-11-28T23:11:09.130Z,45.95
2022-11-28T23:16:13.091Z,46.20
2022-11-28T23:18:40.132Z,45.00
2022-11-28T23:21:07.553Z,45.08
2022-11-28T23:23:34.964Z,48.28
2022-11-28T23:26:11.116Z,58.28
2022-11-28T23:28:38.136Z,54.40
2022-11-28T23:31:22.807Z,52.78
2022-11-28T23:33:49.635Z,49.40
2022-11-28T23:36:17.372Z,51.38
2022-11-28T23:38:45.088Z,44.60
2022-11-28T23:41:11.971Z,50.45
2022-11-28T23:43:38.914Z,54.90
2022-11-28T23:46:05.582Z,44.80
2022-11-28T23:48:32.978Z,49.17
2022-11-28T23:50:59.506Z,49.92
2022-11-28T23:53:26.240Z,55.33
2022-11-28T23:55:52.684Z,48.10
2022-11-28T23:58:19.293Z,44.53
